createdAt,value
2022-11-10T00:01:09.908Z,10.40
2022-11-10T00:03:39.071Z,10.41
2022-11-10T00:06:08.202Z,10.43
2022-11-10T00:08:35.643Z,10.39
2022-11-10T00:11:07.262Z,10.41
2022-11-10T00:13:56.600Z,10.44
2022-11-10T00:16:42.569Z,10.41
2022-11-10T00:19:09.525Z,10.38
2022-11-10T00:21:37.302Z,10.35
2022-11-10T00:24:05.125Z,10.37
2022-11-10T00:26:32.025Z,10.38
2022-11-10T00:28:58.941Z,10.33
2022-11-10T00:31:28.630Z,10.27
2022-11-10T00:33:56.189Z,10.33
2022-11-10T00:36:23.247Z,10.23
2022-11-10T00:38:53.217Z,10.25
2022-11-10T00:41:20.272Z,10.23
2022-11-10T00:43:47.098Z,10.12
2022-11-10T00:46:14.735Z,10.20
2022-11-10T00:48:41.495Z,10.16
2022-11-10T00:51:17.840Z,10.18
2022-11-10T00:53:44.567Z,10.14
2022-11-10T00:56:11.309Z,10.16
2022-11-10T00:58:40.119Z,10.12
2022-11-10T01:01:07.500Z,10.10
2022-11-10T01:03:35.138Z,10.03
2022-11-10T01:06:16.793Z,10.06
2022-11-10T01:08:43.919Z,10.10
2022-11-10T01:11:16.335Z,10.07
2022-11-10T01:13:44.561Z,10.07
2022-11-10T01:16:22.303Z,9.99
2022-11-10T01:18:55.078Z,9.93
2022-11-10T01:21:22.967Z,9.85
2022-11-10T01:23:50.352Z,9.77
2022-11-10T01:26:18.213Z,9.70
2022-11-10T01:28:45.708Z,9.75
2022-11-10T01:31:19.266Z,9.71
2022-11-10T01:33:46.309Z,9.54
2022-11-10T01:36:14.311Z,9.46
2022-11-10T01:38:43.284Z,9.43
2022-11-10T01:41:16.536Z,9.09
2022-11-10T01:43:43.830Z,9.07
2022-11-10T01:46:13.541Z,8.83
2022-11-10T01:48:53.316Z,9.05
2022-11-10T01:51:43.313Z,9.28
2022-11-10T01:54:20.547Z,9.02
2022-11-10T01:57:02.863Z,8.98
2022-11-10T01:59:36.323Z,8.87
2022-11-10T02:02:16.259Z,8.78
2022-11-10T02:04:43.880Z,8.80
2022-11-10T02:07:12.276Z,8.58
2022-11-10T02:09:41.907Z,8.67
2022-11-10T02:12:09.038Z,8.79
2022-11-10T02:14:37.044Z,8.78
2022-11-10T02:17:04.144Z,8.80
2022-11-10T02:19:31.214Z,9.00
2022-11-10T02:21:58.130Z,8.73
2022-11-10T02:24:25.207Z,8.95
2022-11-10T02:26:55.185Z,8.46
2022-11-10T02:29:24.385Z,8.59
2022-11-10T02:31:51.281Z,8.22
2022-11-10T02:34:18.419Z,8.41
2022-11-10T02:36:45.322Z,8.29
2022-11-10T02:39:12.333Z,8.33
2022-11-10T02:41:39.351Z,8.39
2022-11-10T02:44:07.456Z,8.61
2022-11-10T02:46:34.518Z,8.12
2022-11-10T02:49:01.531Z,8.56
2022-11-10T02:51:28.560Z,8.11
2022-11-10T02:53:55.481Z,8.27
2022-11-10T02:56:22.533Z,8.22
2022-11-10T02:58:49.535Z,8.12
2022-11-10T03:01:16.533Z,8.19
2022-11-10T03:03:43.498Z,8.13
2022-11-10T03:06:25.567Z,8.12
2022-11-10T03:08:52.639Z,7.81
2022-11-10T03:11:19.733Z,8.26
2022-11-10T03:14:00.756Z,8.03
2022-11-10T03:16:28.170Z,7.87
2022-11-10T03:18:55.074Z,8.03
2022-11-10T03:21:22.028Z,7.91
2022-11-10T03:23:48.860Z,7.71
2022-11-10T03:26:18.995Z,7.81
2022-11-10T03:28:45.896Z,7.82
2022-11-10T03:31:12.740Z,7.79
2022-11-10T03:33:39.771Z,7.68
2022-11-10T03:36:08.893Z,7.34
2022-11-10T03:38:36.004Z,7.35
2022-11-10T03:41:20.291Z,7.41
2022-11-10T03:43:48.540Z,7.50
2022-11-10T03:46:16.969Z,7.57
2022-11-10T03:48:47.370Z,7.45
2022-11-10T03:51:17.879Z,7.50
2022-11-10T03:53:44.880Z,7.35
2022-11-10T03:56:12.776Z,7.41
2022-11-10T03:58:39.775Z,7.13
2022-11-10T04:01:06.844Z,7.37
2022-11-10T04:03:33.909Z,7.23
2022-11-10T04:06:19.949Z,7.43
2022-11-10T04:09:16.138Z,7.45
2022-11-10T04:12:05.353Z,7.39
2022-11-10T04:14:51.446Z,7.15
2022-11-10T04:17:18.372Z,7.58
2022-11-10T04:19:45.315Z,7.30
2022-11-10T04:22:32.186Z,7.32
2022-11-10T04:25:01.534Z,7.42
2022-11-10T04:27:28.617Z,7.19
2022-11-10T04:29:55.589Z,7.23
2022-11-10T04:32:22.729Z,7.17
2022-11-10T04:34:50.050Z,7.33
2022-11-10T04:37:17.523Z,7.08
2022-11-10T04:39:44.647Z,6.87
2022-11-10T04:42:11.634Z,7.03
2022-11-10T04:44:38.846Z,6.97
2022-11-10T04:47:10.645Z,6.92
2022-11-10T04:49:38.812Z,6.66
2022-11-10T04:52:05.877Z,6.65
2022-11-10T04:54:32.812Z,6.84
2022-11-10T04:56:59.834Z,6.64
2022-11-10T04:59:26.713Z,6.60
2022-11-10T05:01:53.544Z,6.33
2022-11-10T05:04:20.478Z,6.41
2022-11-10T05:06:47.408Z,6.67
2022-11-10T05:09:14.454Z,6.32
2022-11-10T05:11:41.468Z,5.98
2022-11-10T05:14:08.419Z,6.26
2022-11-10T05:16:35.402Z,6.02
2022-11-10T05:19:02.375Z,6.07
2022-11-10T05:21:32.410Z,5.85
2022-11-10T05:24:02.093Z,6.26
2022-11-10T05:26:28.961Z,5.81
2022-11-10T05:28:55.856Z,6.13
2022-11-10T05:31:22.784Z,5.93
2022-11-10T05:33:49.701Z,6.11
2022-11-10T05:36:16.649Z,6.12
2022-11-10T05:38:44.026Z,5.98
2022-11-10T05:41:11.862Z,5.97
2022-11-10T05:43:38.891Z,5.97
2022-11-10T05:46:06.000Z,5.78
2022-11-10T05:48:32.825Z,5.74
2022-11-10T05:51:00.031Z,5.84
2022-11-10T05:53:27.108Z,5.90
2022-11-10T05:55:53.982Z,6.08
2022-11-10T05:58:21.485Z,5.84
2022-11-10T06:00:48.650Z,5.83
2022-11-10T06:03:18.868Z,5.75
2022-11-10T06:05:46.465Z,5.78
2022-11-10T06:08:17.449Z,5.73
2022-11-10T06:10:44.853Z,5.78
2022-11-10T06:13:11.954Z,5.62
2022-11-10T06:15:39.020Z,5.88
2022-11-10T06:18:06.576Z,6.10
2022-11-10T06:20:34.017Z,5.83
2022-11-10T06:23:11.014Z,6.02
2022-11-10T06:25:40.021Z,5.82
2022-11-10T06:28:08.657Z,5.87
2022-11-10T06:30:37.916Z,5.73
2022-11-10T06:33:05.131Z,5.76
2022-11-10T06:35:32.887Z,5.78
2022-11-10T06:38:06.977Z,5.68
2022-11-10T06:40:34.432Z,5.51
2022-11-10T06:43:02.237Z,5.69
2022-11-10T06:45:30.011Z,5.40
2022-11-10T06:48:03.645Z,5.58
2022-11-10T06:50:31.378Z,5.57
2022-11-10T06:53:00.104Z,5.47
2022-11-10T06:55:27.809Z,5.37
2022-11-10T06:57:54.649Z,5.48
2022-11-10T07:00:22.491Z,5.34
2022-11-10T07:03:02.715Z,5.15
2022-11-10T07:05:31.667Z,5.37
2022-11-10T07:08:05.931Z,5.65
2022-11-10T07:10:34.662Z,5.47
2022-11-10T07:13:03.813Z,5.31
2022-11-10T07:15:31.696Z,5.33
2022-11-10T07:17:58.766Z,5.34
2022-11-10T07:20:26.583Z,5.34
2022-11-10T07:23:05.689Z,5.42
2022-11-10T07:25:37.682Z,5.34
2022-11-10T07:28:08.417Z,5.35
2022-11-10T07:30:36.965Z,5.36
2022-11-10T07:33:10.624Z,5.50
2022-11-10T07:35:37.831Z,5.47
2022-11-10T07:38:13.220Z,5.21
2022-11-10T07:40:40.375Z,5.08
2022-11-10T07:43:07.579Z,5.21
2022-11-10T07:45:34.491Z,5.32
2022-11-10T07:48:05.273Z,5.11
2022-11-10T07:50:36.786Z,5.45
2022-11-10T07:53:12.982Z,5.44
2022-11-10T07:55:43.874Z,5.09
2022-11-10T07:58:14.108Z,5.27
2022-11-10T08:00:42.570Z,5.29
2022-11-10T08:03:16.073Z,5.38
2022-11-10T08:05:43.733Z,5.52
2022-11-10T08:08:11.332Z,5.63
2022-11-10T08:10:40.197Z,5.61
2022-11-10T08:13:11.150Z,5.56
2022-11-10T08:15:40.298Z,6.02
2022-11-10T08:18:21.102Z,5.86
2022-11-10T08:20:49.017Z,5.89
2022-11-10T08:23:19.422Z,5.62
2022-11-10T08:25:48.435Z,5.97
2022-11-10T08:28:18.236Z,6.06
2022-11-10T08:30:52.787Z,6.15
2022-11-10T08:33:21.932Z,5.97
2022-11-10T08:35:52.266Z,6.19
2022-11-10T08:38:22.559Z,6.22
2022-11-10T08:40:50.805Z,6.38
2022-11-10T08:43:19.059Z,6.51
2022-11-10T08:45:46.862Z,6.41
2022-11-10T08:48:20.082Z,6.62
2022-11-10T08:50:49.783Z,6.75
2022-11-10T08:53:22.184Z,6.63
2022-11-10T08:55:50.501Z,7.01
2022-11-10T08:58:21.825Z,6.90
2022-11-10T09:00:49.372Z,7.06
2022-11-10T09:03:25.148Z,7.49
2022-11-10T09:05:58.026Z,7.70
2022-11-10T09:08:27.607Z,7.97
2022-11-10T09:10:54.868Z,7.89
2022-11-10T09:13:27.666Z,8.07
2022-11-10T09:16:03.074Z,8.22
2022-11-10T09:18:30.855Z,8.23
2022-11-10T09:20:57.822Z,8.48
2022-11-10T09:23:25.624Z,8.68
2022-11-10T09:25:55.730Z,8.64
2022-11-10T09:28:24.217Z,8.86
2022-11-10T09:30:53.353Z,8.83
2022-11-10T09:33:21.102Z,9.21
2022-11-10T09:35:48.586Z,9.50
2022-11-10T09:38:17.207Z,9.67
2022-11-10T09:41:05.305Z,10.06
2022-11-10T09:44:34.524Z,10.04
2022-11-10T09:47:12.166Z,10.45
2022-11-10T09:49:50.539Z,10.44
2022-11-10T09:52:19.179Z,10.41
2022-11-10T09:54:55.091Z,10.58
2022-11-10T09:57:26.128Z,10.71
2022-11-10T09:59:54.321Z,10.99
2022-11-10T10:02:46.356Z,10.86
2022-11-10T10:05:54.046Z,11.31
2022-11-10T10:09:02.689Z,11.46
2022-11-10T10:12:23.502Z,11.62
2022-11-10T10:15:03.285Z,11.81
2022-11-10T10:17:41.342Z,12.07
2022-11-10T10:21:10.336Z,12.20
2022-11-10T10:24:08.956Z,12.02
2022-11-10T10:26:53.520Z,12.36
2022-11-10T10:29:36.046Z,12.61
2022-11-10T10:32:19.250Z,12.67
2022-11-10T10:34:50.064Z,12.70
2022-11-10T10:37:31.722Z,13.02
2022-11-10T10:40:04.338Z,13.18
2022-11-10T10:42:59.020Z,13.26
2022-11-10T10:45:48.251Z,13.40
2022-11-10T10:48:33.509Z,13.26
2022-11-10T10:51:29.007Z,13.37
2022-11-10T10:54:00.610Z,13.26
2022-11-10T10:56:40.704Z,13.19
2022-11-10T10:59:31.065Z,13.22
2022-11-10T11:02:20.720Z,13.65
2022-11-10T11:11:33.863Z,13.83
2022-11-10T11:14:58.718Z,13.88
2022-11-10T11:17:40.771Z,14.05
2022-11-10T11:24:03.953Z,14.29
2022-11-10T11:29:35.635Z,14.43
2022-11-10T11:32:17.439Z,14.36
2022-11-10T11:35:58.627Z,14.41
2022-11-10T11:38:40.204Z,14.57
2022-11-10T11:41:54.172Z,14.64
2022-11-10T11:44:50.929Z,14.71
2022-11-10T11:47:43.082Z,14.78
2022-11-10T11:50:37.440Z,14.52
2022-11-10T11:53:31.141Z,14.46
2022-11-10T11:56:22.225Z,14.67
2022-11-10T11:59:35.750Z,14.81
2022-11-10T12:02:30.352Z,14.97
2022-11-10T12:05:27.648Z,15.13
2022-11-10T12:08:18.537Z,15.24
2022-11-10T12:11:04.024Z,15.32
2022-11-10T12:13:55.672Z,15.50
2022-11-10T12:16:28.846Z,15.61
2022-11-10T12:19:39.289Z,15.69
2022-11-10T12:22:13.149Z,15.82
2022-11-10T12:25:13.132Z,15.65
2022-11-10T12:27:48.133Z,15.66
2022-11-10T12:30:17.575Z,15.76
2022-11-10T12:32:52.720Z,15.69
2022-11-10T12:35:33.136Z,15.56
2022-11-10T12:38:17.142Z,15.66
2022-11-10T12:40:49.593Z,15.60
2022-11-10T12:44:07.752Z,15.64
2022-11-10T12:46:34.767Z,15.77
2022-11-10T12:49:21.812Z,15.74
2022-11-10T12:52:03.101Z,15.82
2022-11-10T12:54:30.077Z,15.54
2022-11-10T12:57:22.004Z,15.34
2022-11-10T13:00:05.909Z,15.51
2022-11-10T13:02:33.958Z,15.61
2022-11-10T13:05:27.189Z,15.61
2022-11-10T13:08:33.036Z,15.74
2022-11-10T13:11:22.717Z,15.70
2022-11-10T13:14:00.029Z,15.60
2022-11-10T13:16:39.307Z,15.80
2022-11-10T13:19:11.537Z,15.99
2022-11-10T13:21:53.400Z,16.00
2022-11-10T13:24:26.832Z,15.97
2022-11-10T13:26:59.005Z,16.00
2022-11-10T13:29:35.919Z,16.03
2022-11-10T13:32:36.080Z,16.04
2022-11-10T13:35:30.379Z,16.19
2022-11-10T13:37:57.913Z,16.04
2022-11-10T13:40:24.597Z,16.06
2022-11-10T13:42:57.335Z,16.17
2022-11-10T13:45:43.400Z,16.23
2022-11-10T13:48:12.857Z,16.25
2022-11-10T13:51:01.312Z,16.31
2022-11-10T13:54:00.963Z,16.27
2022-11-10T13:56:46.937Z,16.37
2022-11-10T13:59:44.496Z,16.25
2022-11-10T14:02:42.245Z,16.37
2022-11-10T14:05:28.911Z,16.46
2022-11-10T14:08:14.904Z,16.45
2022-11-10T14:11:00.279Z,16.50
2022-11-10T14:13:40.656Z,16.59
2022-11-10T14:16:21.648Z,16.62
2022-11-10T14:19:24.807Z,16.63
2022-11-10T14:21:58.241Z,16.54
2022-11-10T14:24:38.504Z,16.54
2022-11-10T14:27:16.142Z,16.49
2022-11-10T14:29:43.167Z,16.24
2022-11-10T14:32:17.774Z,16.18
2022-11-10T14:34:49.257Z,16.02
2022-11-10T14:37:23.250Z,16.00
2022-11-10T14:39:56.156Z,15.98
2022-11-10T14:42:26.440Z,15.90
2022-11-10T14:45:27.235Z,15.85
2022-11-10T14:47:56.072Z,15.87
2022-11-10T14:50:25.229Z,15.88
2022-11-10T14:53:01.695Z,15.83
2022-11-10T14:55:31.915Z,15.56
2022-11-10T14:58:10.504Z,15.35
2022-11-10T15:00:41.166Z,15.13
2022-11-10T15:03:14.836Z,14.91
2022-11-10T15:05:42.617Z,14.82
2022-11-10T15:08:10.502Z,14.57
2022-11-10T15:10:47.278Z,14.43
2022-11-10T15:13:13.912Z,14.22
2022-11-10T15:15:41.765Z,14.02
2022-11-10T15:18:29.381Z,13.80
2022-11-10T15:21:06.361Z,13.58
2022-11-10T15:23:41.456Z,13.45
2022-11-10T15:26:29.330Z,12.92
2022-11-10T15:28:56.158Z,12.64
2022-11-10T15:31:29.436Z,12.54
2022-11-10T15:34:03.499Z,12.41
2022-11-10T15:36:39.613Z,12.28
2022-11-10T15:39:23.478Z,12.13
2022-11-10T15:41:57.580Z,11.59
2022-11-10T15:44:30.578Z,11.59
2022-11-10T15:46:58.344Z,11.34
2022-11-10T15:49:32.704Z,11.22
2022-11-10T15:52:06.684Z,11.07
2022-11-10T15:54:36.149Z,10.94
2022-11-10T15:57:02.877Z,10.88
2022-11-10T15:59:29.872Z,10.86
2022-11-10T16:01:56.817Z,10.72
2022-11-10T16:04:27.111Z,10.48
2022-11-10T16:06:53.969Z,10.41
2022-11-10T16:09:20.783Z,10.26
2022-11-10T16:11:47.537Z,10.08
2022-11-10T16:14:17.083Z,10.06
2022-11-10T16:16:44.585Z,9.95
2022-11-10T16:19:12.548Z,9.78
2022-11-10T16:21:39.304Z,9.56
2022-11-10T16:24:06.350Z,9.56
2022-11-10T16:26:34.808Z,9.58
2022-11-10T16:29:01.927Z,9.49
2022-11-10T16:31:29.373Z,9.36
2022-11-10T16:33:56.068Z,9.27
2022-11-10T16:36:26.417Z,9.15
2022-11-10T16:38:54.563Z,8.95
2022-11-10T16:41:21.898Z,8.89
2022-11-10T16:43:48.660Z,8.71
2022-11-10T16:46:27.202Z,8.63
2022-11-10T16:48:59.063Z,8.56
2022-11-10T16:51:41.830Z,8.51
2022-11-10T16:54:14.070Z,8.34
2022-11-10T16:56:40.867Z,8.20
2022-11-10T16:59:07.816Z,8.07
2022-11-10T17:01:36.936Z,8.06
2022-11-10T17:04:11.855Z,7.97
2022-11-10T17:06:38.765Z,7.87
2022-11-10T17:09:28.221Z,7.86
2022-11-10T17:11:54.934Z,7.77
2022-11-10T17:14:21.810Z,7.61
2022-11-10T17:16:48.660Z,7.51
2022-11-10T17:19:20.692Z,7.49
2022-11-10T17:21:49.673Z,7.47
2022-11-10T17:24:17.503Z,7.41
2022-11-10T17:26:45.026Z,7.33
2022-11-10T17:29:21.308Z,7.25
2022-11-10T17:31:50.431Z,7.15
2022-11-10T17:34:17.240Z,7.07
2022-11-10T17:36:44.007Z,7.01
2022-11-10T17:39:14.773Z,6.94
2022-11-10T17:41:41.561Z,6.91
2022-11-10T17:44:16.363Z,6.93
2022-11-10T17:46:43.334Z,6.84
2022-11-10T17:49:10.132Z,6.76
2022-11-10T17:51:37.405Z,6.70
2022-11-10T17:54:05.544Z,6.70
2022-11-10T17:56:32.995Z,6.60
2022-11-10T17:59:00.082Z,6.53
2022-11-10T18:01:26.855Z,6.50
2022-11-10T18:03:53.764Z,6.33
2022-11-10T18:06:21.457Z,6.31
2022-11-10T18:08:48.432Z,6.26
2022-11-10T18:11:18.073Z,6.15
2022-11-10T18:13:45.411Z,6.00
2022-11-10T18:16:14.262Z,5.96
2022-11-10T18:18:41.489Z,5.93
2022-11-10T18:21:08.649Z,5.90
2022-11-10T18:23:35.777Z,5.68
2022-11-10T18:26:09.100Z,5.81
2022-11-10T18:28:36.248Z,5.71
2022-11-10T18:31:13.079Z,5.66
2022-11-10T18:33:42.619Z,5.58
2022-11-10T18:36:09.684Z,5.43
2022-11-10T18:38:36.468Z,5.37
2022-11-10T18:41:24.011Z,5.43
2022-11-10T18:43:51.216Z,5.49
2022-11-10T18:46:17.924Z,5.46
2022-11-10T18:48:47.892Z,5.34
2022-11-10T18:51:16.335Z,5.36
2022-11-10T18:53:43.068Z,5.31
2022-11-10T18:56:09.804Z,5.24
2022-11-10T18:58:36.631Z,5.14
2022-11-10T19:01:06.820Z,5.04
2022-11-10T19:03:35.315Z,5.06
2022-11-10T19:06:02.055Z,5.05
2022-11-10T19:08:29.719Z,5.08
2022-11-10T19:10:57.272Z,5.02
2022-11-10T19:13:25.665Z,4.96
2022-11-10T19:15:53.247Z,4.83
2022-11-10T19:18:19.957Z,4.83
2022-11-10T19:20:46.650Z,4.83
2022-11-10T19:23:13.369Z,4.75
2022-11-10T19:25:40.087Z,4.82
2022-11-10T19:28:11.246Z,4.74
2022-11-10T19:30:39.396Z,4.77
2022-11-10T19:33:06.206Z,4.75
2022-11-10T19:35:33.299Z,4.73
2022-11-10T19:38:01.103Z,4.47
2022-11-10T19:40:27.967Z,4.46
2022-11-10T19:42:54.733Z,4.38
2022-11-10T19:45:21.551Z,4.36
2022-11-10T19:47:48.442Z,4.28
2022-11-10T19:50:15.659Z,4.27
2022-11-10T19:52:42.365Z,4.22
2022-11-10T19:55:09.093Z,4.17
2022-11-10T19:57:35.874Z,4.09
2022-11-10T20:00:05.048Z,4.18
2022-11-10T20:02:31.753Z,4.13
2022-11-10T20:05:13.769Z,4.11
2022-11-10T20:08:08.779Z,4.02
2022-11-10T20:10:38.604Z,3.97
2022-11-10T20:13:06.207Z,3.94
2022-11-10T20:15:34.300Z,3.97
2022-11-10T20:18:02.018Z,3.83
2022-11-10T20:20:32.484Z,3.89
2022-11-10T20:23:03.904Z,3.80
2022-11-10T20:25:31.477Z,3.84
2022-11-10T20:28:01.374Z,3.89
2022-11-10T20:30:28.185Z,3.89
2022-11-10T20:32:54.990Z,3.79
2022-11-10T20:35:21.730Z,3.74
2022-11-10T20:37:48.566Z,3.62
2022-11-10T20:40:42.397Z,3.50
2022-11-10T20:43:02.144Z,3.51
2022-11-10T20:45:29.044Z,3.39
2022-11-10T20:47:55.818Z,3.39
2022-11-10T20:50:24.673Z,3.45
2022-11-10T20:52:51.583Z,3.45
2022-11-10T20:55:22.089Z,3.33
2022-11-10T20:57:57.608Z,3.35
2022-11-10T21:00:24.336Z,3.34
2022-11-10T21:02:51.037Z,3.46
2022-11-10T21:05:17.788Z,3.44
2022-11-10T21:07:44.525Z,3.42
2022-11-10T21:10:11.244Z,3.45
2022-11-10T21:12:49.797Z,3.39
2022-11-10T21:15:19.259Z,3.31
2022-11-10T21:17:46.319Z,3.27
2022-11-10T21:20:13.930Z,3.32
2022-11-10T21:22:41.000Z,3.23
2022-11-10T21:25:08.717Z,3.18
2022-11-10T21:27:35.521Z,3.17
2022-11-10T21:30:02.461Z,3.11
2022-11-10T21:32:29.179Z,3.08
2022-11-10T21:34:55.875Z,2.99
2022-11-10T21:37:23.744Z,2.97
2022-11-10T21:39:50.470Z,3.04
2022-11-10T21:42:20.848Z,2.96
2022-11-10T21:44:47.646Z,3.02
2022-11-10T21:47:14.497Z,2.95
2022-11-10T21:49:41.249Z,2.97
2022-11-10T21:52:08.065Z,3.03
2022-11-10T21:54:34.836Z,3.03
2022-11-10T21:57:01.612Z,3.01
2022-11-10T21:59:28.335Z,2.92
2022-11-10T22:01:55.061Z,2.97
2022-11-10T22:04:21.803Z,2.86
2022-11-10T22:07:06.932Z,2.87
2022-11-10T22:09:52.233Z,2.81
2022-11-10T22:12:37.463Z,2.74
2022-11-10T22:15:24.382Z,2.75
2022-11-10T22:18:09.780Z,2.67
2022-11-10T22:20:36.639Z,2.75
2022-11-10T22:23:03.358Z,2.68
2022-11-10T22:25:30.083Z,2.52
2022-11-10T22:27:57.429Z,2.53
2022-11-10T22:30:24.160Z,2.51
2022-11-10T22:32:50.889Z,2.50
2022-11-10T22:35:35.916Z,2.41
2022-11-10T22:38:06.406Z,2.47
2022-11-10T22:40:52.603Z,2.48
2022-11-10T22:43:38.233Z,2.49
2022-11-10T22:46:05.053Z,2.46
2022-11-10T22:48:33.011Z,2.42
2022-11-10T22:51:00.520Z,2.47
2022-11-10T22:53:27.601Z,2.49
2022-11-10T22:55:59.567Z,2.39
2022-11-10T22:58:26.385Z,2.43
2022-11-10T23:00:53.121Z,2.38
2022-11-10T23:03:19.944Z,2.33
2022-11-10T23:05:55.890Z,2.27
2022-11-10T23:08:23.316Z,2.18
2022-11-10T23:11:00.116Z,2.31
2022-11-10T23:13:27.424Z,2.24
2022-11-10T23:15:56.824Z,2.14
2022-11-10T23:18:23.693Z,2.10
2022-11-10T23:21:03.341Z,2.09
2022-11-10T23:23:34.175Z,2.02
2022-11-10T23:26:05.221Z,1.96
2022-11-10T23:28:33.581Z,1.89
2022-11-10T23:31:10.316Z,1.95
2022-11-10T23:33:39.692Z,1.82
2022-11-10T23:36:08.185Z,1.84
2022-11-10T23:38:37.300Z,1.83
2022-11-10T23:41:07.047Z,1.82
2022-11-10T23:43:34.411Z,1.78
2022-11-10T23:46:07.023Z,1.72
2022-11-10T23:48:35.270Z,1.71
2022-11-10T23:51:02.291Z,1.78
2022-11-10T23:53:29.108Z,1.77
2022-11-10T23:56:04.584Z,1.85
2022-11-10T23:58:32.622Z,1.86
